Time;durP1;ratioP1;P1;durP2;ratioP2;P2;SDS_P1;SDS_P2;PMS_P1;PMS_P2;Temp;Humidity;BMP_temperature;BMP_pressure;BME280_temperature;BME280_humidity;BME280_pressure;Samples;Min_cycle;Max_cycle;Signal;HPM_P1;HPM_P2
2022/05/29 00:00:59;;;;;;;1.65;0.50;;;14.20;37.90;;;;;;2343689;53;20907;-75
2022/05/29 00:03:26;;;;;;;2.50;0.70;;;14.10;38.00;;;;;;2463724;53;20972;-75
2022/05/29 00:05:55;;;;;;;2.22;0.60;;;14.10;38.10;;;;;;2340188;54;20937;-75
2022/05/29 00:08:26;;;;;;;1.10;0.50;;;14.10;38.20;;;;;;2337265;54;20936;-75
2022/05/29 00:10:52;;;;;;;1.20;0.50;;;14.10;38.40;;;;;;2338748;53;20924;-75
2022/05/29 00:13:19;;;;;;;1.00;0.40;;;14.00;38.30;;;;;;2340197;54;20980;-75
2022/05/29 00:15:47;;;;;;;1.27;0.50;;;14.00;38.30;;;;;;2382295;53;20972;-75
2022/05/29 00:18:13;;;;;;;1.73;0.70;;;14.00;38.40;;;;;;2339877;54;21449;-75
2022/05/29 00:20:40;;;;;;;1.65;0.50;;;14.00;38.50;;;;;;2346525;53;20930;-75
2022/05/29 00:23:07;;;;;;;1.50;0.60;;;14.00;38.60;;;;;;2351015;53;20934;-75
2022/05/29 00:25:33;;;;;;;1.60;0.60;;;14.00;38.70;;;;;;2343096;53;20984;-75
2022/05/29 00:28:00;;;;;;;1.00;0.40;;;13.90;38.60;;;;;;2339959;53;20996;-75
2022/05/29 00:30:27;;;;;;;1.00;0.43;;;13.90;38.70;;;;;;2583802;53;21004;-75
2022/05/29 00:32:53;;;;;;;1.67;0.60;;;13.90;38.90;;;;;;2342437;53;20956;-75
2022/05/29 00:35:19;;;;;;;1.48;0.50;;;13.90;38.90;;;;;;2367743;53;21011;-75
2022/05/29 00:37:47;;;;;;;3.40;0.80;;;13.90;39.00;;;;;;2585387;53;20924;-75
2022/05/29 00:40:58;;;;;;;2.03;0.70;;;13.80;39.10;;;;;;2499975;53;21452;-75
2022/05/29 00:43:25;;;;;;;1.65;0.60;;;13.90;40.00;;;;;;2339991;54;20924;-75
2022/05/29 00:45:58;;;;;;;0.65;0.40;;;13.90;39.40;;;;;;2340340;54;21544;-75
2022/05/29 00:48:25;;;;;;;1.67;0.70;;;13.90;39.60;;;;;;2386456;53;20915;-75
2022/05/29 00:50:54;;;;;;;1.80;0.60;;;13.90;39.40;;;;;;2340412;53;20948;-75
2022/05/29 00:53:21;;;;;;;1.65;0.68;;;13.90;39.60;;;;;;2339369;54;21299;-75
2022/05/29 00:55:54;;;;;;;2.33;0.73;;;13.90;39.70;;;;;;2346393;53;20964;-75
2022/05/29 00:58:21;;;;;;;3.17;0.60;;;13.90;39.80;;;;;;2339689;54;20920;-75
2022/05/29 01:00:49;;;;;;;1.40;0.60;;;13.90;39.80;;;;;;2340148;54;21420;-75
2022/05/29 01:03:15;;;;;;;1.67;0.68;;;13.90;39.70;;;;;;2339470;54;21012;-75
2022/05/29 01:05:42;;;;;;;2.58;0.70;;;13.90;39.80;;;;;;2345975;53;20955;-75
2022/05/29 01:08:20;;;;;;;0.95;0.40;;;13.90;39.80;;;;;;2341229;53;20952;-75
2022/05/29 01:10:56;;;;;;;1.98;0.80;;;13.90;40.10;;;;;;2339177;53;21019;-75
2022/05/29 01:14:51;;;;;;;2.62;0.95;;;13.90;40.20;;;;;;2340282;54;20936;-75
2022/05/29 01:17:28;;;;;;;1.58;0.68;;;13.90;40.60;;;;;;2340106;54;21051;-75
2022/05/29 01:20:16;;;;;;;1.87;0.70;;;13.90;40.40;;;;;;2340456;54;21445;-75
2022/05/29 01:25:38;;;;;;;1.95;0.70;;;13.90;40.50;;;;;;2373138;53;21007;-75
2022/05/29 01:28:51;;;;;;;2.42;0.50;;;13.90;40.70;;;;;;2375653;53;20944;-75
2022/05/29 01:31:33;;;;;;;2.33;0.80;;;14.00;40.90;;;;;;2340195;54;20952;-75
2022/05/29 01:34:23;;;;;;;2.80;0.70;;;13.90;40.50;;;;;;2343357;54;21772;-75
2022/05/29 01:37:42;;;;;;;1.70;0.60;;;14.00;40.70;;;;;;2339818;53;21031;-75
2022/05/29 01:40:12;;;;;;;2.17;0.60;;;13.90;40.80;;;;;;2339871;53;21059;-75
2022/05/29 01:42:45;;;;;;;1.70;0.60;;;14.00;40.60;;;;;;2340599;54;20940;-75
2022/05/29 01:45:29;;;;;;;3.47;0.90;;;13.90;40.50;;;;;;2339944;54;21827;-75
2022/05/29 01:48:33;;;;;;;1.95;0.70;;;14.00;40.90;;;;;;2347341;53;20963;-75
2022/05/29 01:51:10;;;;;;;2.72;0.90;;;13.90;40.60;;;;;;2586655;53;20975;-75
2022/05/29 01:53:39;;;;;;;2.35;0.95;;;13.90;40.80;;;;;;2371026;53;20955;-75
2022/05/29 01:57:36;;;;;;;2.72;0.98;;;13.90;40.80;;;;;;2339884;54;20948;-75
2022/05/29 02:00:36;;;;;;;2.08;0.90;;;13.90;41.60;;;;;;2589446;53;21360;-75
2022/05/29 02:03:08;;;;;;;2.50;1.08;;;14.00;41.60;;;;;;2339498;53;20979;-75
2022/05/29 02:05:42;;;;;;;3.12;0.95;;;13.90;41.20;;;;;;2585666;53;20917;-75
2022/05/29 02:08:35;;;;;;;2.50;0.80;;;14.00;41.40;;;;;;2345503;53;20903;-75
2022/05/29 02:11:13;;;;;;;1.60;0.70;;;14.00;41.40;;;;;;2330088;54;21278;-75
2022/05/29 02:13:49;;;;;;;2.28;0.90;;;14.00;41.50;;;;;;2340449;54;20952;-75
2022/05/29 02:16:18;;;;;;;2.20;0.90;;;14.00;41.40;;;;;;2339335;54;21000;-75
2022/05/29 02:19:06;;;;;;;1.92;0.80;;;14.00;41.30;;;;;;2345006;53;20911;-75
2022/05/29 02:21:50;;;;;;;2.50;0.65;;;14.00;41.50;;;;;;2341948;53;20976;-75
2022/05/29 02:24:19;;;;;;;2.55;1.00;;;14.00;41.40;;;;;;2339610;54;21000;-75
2022/05/29 02:26:55;;;;;;;2.22;0.85;;;14.00;41.50;;;;;;2340079;53;21024;-75
2022/05/29 02:29:21;;;;;;;2.78;1.00;;;14.10;41.90;;;;;;2340217;54;20936;-75
2022/05/29 02:33:57;;;;;;;2.72;0.90;;;14.10;41.90;;;;;;2340190;53;21309;-75
2022/05/29 02:36:44;;;;;;;2.00;0.73;;;14.10;42.70;;;;;;2339974;54;20956;-75
2022/05/29 02:40:57;;;;;;;2.08;0.90;;;14.20;42.20;;;;;;2477664;53;20935;-75
2022/05/29 02:49:17;;;;;;;1.48;0.73;;;14.10;42.20;;;;;;2344461;53;20975;-75
2022/05/29 02:52:02;;;;;;;1.70;0.65;;;14.10;41.80;;;;;;2338814;54;20916;-75
2022/05/29 02:54:30;;;;;;;2.25;0.80;;;14.10;41.80;;;;;;2340036;54;20971;-75
2022/05/29 02:56:58;;;;;;;2.30;0.90;;;14.10;41.70;;;;;;2351104;53;21583;-75
2022/05/29 02:59:31;;;;;;;2.35;1.08;;;14.10;41.80;;;;;;2339361;54;21343;-75
2022/05/29 03:02:48;;;;;;;2.47;1.08;;;14.10;42.10;;;;;;2503146;53;21764;-75
2022/05/29 03:07:19;;;;;;;1.70;0.60;;;14.10;42.20;;;;;;2345105;53;20954;-75
2022/05/29 03:13:29;;;;;;;1.70;0.77;;;14.10;42.40;;;;;;2342214;53;20944;-75
2022/05/29 03:16:29;;;;;;;2.40;0.75;;;14.10;42.10;;;;;;2340377;54;20956;-75
2022/05/29 03:19:27;;;;;;;2.58;0.80;;;14.00;41.90;;;;;;2336682;53;20956;-75
2022/05/29 03:24:54;;;;;;;1.48;0.70;;;14.00;41.90;;;;;;2340281;54;20912;-75
2022/05/29 03:27:35;;;;;;;1.45;0.70;;;13.90;42.10;;;;;;2338015;53;21004;-75
2022/05/29 03:30:26;;;;;;;1.48;0.60;;;13.90;41.90;;;;;;2338499;53;20947;-75
2022/05/29 03:32:56;;;;;;;2.37;0.62;;;13.90;42.10;;;;;;2344627;53;21782;-75
2022/05/29 03:35:36;;;;;;;2.12;0.73;;;13.80;41.70;;;;;;2337669;53;21027;-75
2022/05/29 03:38:03;;;;;;;1.77;0.70;;;13.80;42.10;;;;;;2344768;53;21009;-76
2022/05/29 03:40:31;;;;;;;2.78;0.90;;;13.70;41.90;;;;;;2493292;53;20947;-75
2022/05/29 03:42:57;;;;;;;2.20;0.80;;;13.70;42.00;;;;;;2371623;53;20928;-75
2022/05/29 03:45:24;;;;;;;2.25;0.80;;;13.60;42.00;;;;;;2582894;53;20940;-75
2022/05/29 03:47:50;;;;;;;1.65;0.60;;;13.60;42.00;;;;;;2381898;53;21502;-75
2022/05/29 03:50:18;;;;;;;1.33;0.50;;;13.60;42.10;;;;;;2584687;53;20921;-74
2022/05/29 03:52:46;;;;;;;2.15;0.55;;;13.60;42.20;;;;;;2347787;53;20919;-75
2022/05/29 03:55:12;;;;;;;3.00;0.60;;;13.50;42.10;;;;;;2340315;54;22031;-75
2022/05/29 03:57:39;;;;;;;1.58;0.70;;;13.50;42.20;;;;;;2512456;53;20979;-75
2022/05/29 04:00:10;;;;;;;4.68;0.77;;;13.50;42.40;;;;;;2367282;53;21536;-75
2022/05/29 04:02:42;;;;;;;1.25;0.62;;;13.40;42.50;;;;;;2342348;53;21428;-75
2022/05/29 04:05:09;;;;;;;1.40;0.65;;;13.40;42.50;;;;;;2344060;54;21456;-75
2022/05/29 04:13:04;;;;;;;1.52;0.68;;;13.30;42.70;;;;;;2340526;54;21784;-75
2022/05/29 04:15:31;;;;;;;1.90;0.60;;;13.30;42.70;;;;;;2585900;53;20947;-75
2022/05/29 04:17:57;;;;;;;1.80;0.60;;;13.30;42.80;;;;;;2340476;54;20984;-75
2022/05/29 04:20:24;;;;;;;2.28;0.93;;;13.30;43.00;;;;;;2340331;54;21344;-75
2022/05/29 04:22:50;;;;;;;1.75;0.70;;;13.30;43.00;;;;;;2391373;53;21058;-75
2022/05/29 04:25:16;;;;;;;2.33;0.80;;;13.30;43.10;;;;;;2346607;53;20948;-75
2022/05/29 04:27:43;;;;;;;2.60;0.80;;;13.30;43.30;;;;;;2340149;54;20952;-75
2022/05/29 04:30:12;;;;;;;2.22;0.82;;;13.30;43.30;;;;;;2586049;53;21039;-75
2022/05/29 04:35:31;;;;;;;1.45;0.60;;;13.30;43.50;;;;;;2341352;54;21020;-75
2022/05/29 04:37:58;;;;;;;1.70;0.90;;;13.30;43.40;;;;;;2373878;53;20976;-74
2022/05/29 04:40:24;;;;;;;3.17;0.73;;;13.40;43.60;;;;;;2342925;53;20956;-75
2022/05/29 04:42:50;;;;;;;2.35;0.77;;;13.40;43.70;;;;;;2345649;53;21019;-75
2022/05/29 04:45:17;;;;;;;2.60;0.82;;;13.40;43.70;;;;;;2347175;53;21744;-75
2022/05/29 04:47:43;;;;;;;2.30;0.70;;;13.40;43.70;;;;;;2345235;53;21006;-75
2022/05/29 04:50:10;;;;;;;3.83;0.90;;;13.50;43.80;;;;;;2520013;53;20971;-75
2022/05/29 04:52:36;;;;;;;2.22;0.80;;;13.50;43.80;;;;;;2432023;53;20962;-75
2022/05/29 04:55:03;;;;;;;3.87;0.80;;;13.50;43.80;;;;;;2436353;53;21015;-75
2022/05/29 04:57:30;;;;;;;4.37;1.00;;;13.60;44.00;;;;;;2345350;53;20951;-75
2022/05/29 04:59:57;;;;;;;2.85;0.62;;;13.60;44.00;;;;;;2346442;53;21392;-75
2022/05/29 05:02:24;;;;;;;3.05;0.70;;;13.70;44.00;;;;;;2442745;53;20956;-75
2022/05/29 05:04:51;;;;;;;2.80;0.68;;;13.70;44.10;;;;;;2452040;53;21436;-75
2022/05/29 05:07:17;;;;;;;3.33;0.90;;;13.70;44.10;;;;;;2339793;54;21012;-75
2022/05/29 05:09:43;;;;;;;2.78;0.80;;;13.80;44.10;;;;;;2346386;53;21318;-75
2022/05/29 05:12:11;;;;;;;3.80;0.80;;;13.80;44.00;;;;;;2340548;53;20943;-76
2022/05/29 05:14:37;;;;;;;3.95;0.90;;;13.90;44.10;;;;;;2416883;53;21802;-75
2022/05/29 05:17:04;;;;;;;2.85;0.98;;;13.90;44.00;;;;;;2342496;53;20932;-75
2022/05/29 05:19:30;;;;;;;4.22;1.00;;;14.00;44.00;;;;;;2586187;53;21092;-75
2022/05/29 05:22:00;;;;;;;2.62;0.85;;;14.00;44.00;;;;;;2340702;53;21035;-75
2022/05/29 05:24:27;;;;;;;2.58;0.88;;;14.00;44.00;;;;;;2339791;54;21067;-75
2022/05/29 05:26:53;;;;;;;2.20;0.75;;;14.10;44.00;;;;;;2445006;53;20951;-76
2022/05/29 05:29:19;;;;;;;4.53;1.50;;;14.10;44.00;;;;;;2341415;53;20956;-75
2022/05/29 05:31:46;;;;;;;3.47;1.20;;;14.20;44.20;;;;;;2339687;54;21797;-76
2022/05/29 05:34:12;;;;;;;4.62;1.00;;;14.20;44.10;;;;;;2430097;53;20934;-75
2022/05/29 05:36:38;;;;;;;2.65;0.88;;;14.20;44.00;;;;;;2340469;53;21366;-75
2022/05/29 05:39:05;;;;;;;3.83;0.88;;;14.30;44.10;;;;;;2340026;54;20944;-75
2022/05/29 05:41:32;;;;;;;3.45;0.90;;;14.30;44.10;;;;;;2339391;54;20964;-75
2022/05/29 05:43:58;;;;;;;2.37;0.90;;;14.30;44.00;;;;;;2364591;53;21047;-75
2022/05/29 05:46:27;;;;;;;3.17;0.88;;;14.40;44.00;;;;;;2388147;53;21385;-75
2022/05/29 05:48:54;;;;;;;4.43;1.00;;;14.40;44.00;;;;;;2347756;53;20903;-75
2022/05/29 05:51:20;;;;;;;2.70;0.88;;;14.40;44.00;;;;;;2339650;53;21043;-75
2022/05/29 05:53:47;;;;;;;4.68;0.90;;;14.50;44.10;;;;;;2344784;53;21503;-75
2022/05/29 05:56:15;;;;;;;2.60;0.73;;;14.50;44.20;;;;;;2449108;53;20937;-75
2022/05/29 05:58:42;;;;;;;2.40;0.75;;;14.50;44.20;;;;;;2340434;54;20959;-75
2022/05/29 06:01:15;;;;;;;2.45;0.80;;;14.60;44.20;;;;;;2350703;53;20963;-75
2022/05/29 06:03:42;;;;;;;4.43;1.05;;;14.60;44.20;;;;;;2442359;53;21025;-75
2022/05/29 06:06:08;;;;;;;3.53;1.15;;;14.60;44.00;;;;;;2340440;54;21015;-75
2022/05/29 06:08:34;;;;;;;4.37;1.08;;;14.70;44.10;;;;;;2339753;54;20932;-76
2022/05/29 06:11:00;;;;;;;5.30;1.20;;;14.70;44.10;;;;;;2340703;54;21011;-75
2022/05/29 06:13:27;;;;;;;3.72;1.08;;;14.60;44.00;;;;;;2339859;54;20897;-77
2022/05/29 06:15:54;;;;;;;4.10;1.10;;;14.70;44.00;;;;;;2340937;53;20980;-76
2022/05/29 06:18:20;;;;;;;2.92;0.90;;;14.70;44.10;;;;;;2347965;53;20966;-77
2022/05/29 06:20:50;;;;;;;2.90;0.90;;;14.70;44.20;;;;;;2584917;53;20927;-75
2022/05/29 06:23:16;;;;;;;3.97;1.25;;;14.70;44.20;;;;;;2345731;53;20979;-74
2022/05/29 06:25:44;;;;;;;4.18;1.20;;;14.70;44.20;;;;;;2392504;53;21075;-76
2022/05/29 06:28:13;;;;;;;4.40;1.20;;;14.70;44.10;;;;;;2339614;54;20955;-75
2022/05/29 06:30:40;;;;;;;3.03;1.10;;;14.70;44.20;;;;;;2346471;53;20943;-76
2022/05/29 06:33:07;;;;;;;2.53;0.85;;;14.70;44.20;;;;;;2358946;53;20988;-75
2022/05/29 06:35:33;;;;;;;4.05;0.90;;;14.80;44.30;;;;;;2378339;53;21724;-77
2022/05/29 06:37:59;;;;;;;3.45;0.98;;;14.70;44.30;;;;;;2340452;54;21055;-77
2022/05/29 06:40:26;;;;;;;3.08;1.08;;;14.80;44.40;;;;;;2345374;53;20955;-77
2022/05/29 06:42:52;;;;;;;3.12;1.08;;;14.80;44.50;;;;;;2340538;54;21059;-75
2022/05/29 06:45:19;;;;;;;4.85;1.27;;;14.80;44.50;;;;;;2344573;53;20903;-75
2022/05/29 06:47:45;;;;;;;5.30;1.37;;;14.80;44.50;;;;;;2340759;53;20969;-76
2022/05/29 06:50:12;;;;;;;3.40;1.05;;;14.90;44.60;;;;;;2339592;53;20952;-75
2022/05/29 06:52:38;;;;;;;2.37;0.90;;;14.90;44.80;;;;;;2339907;54;21000;-76
2022/05/29 06:55:05;;;;;;;2.65;0.80;;;15.00;45.00;;;;;;2488621;53;20984;-75
2022/05/29 06:57:41;;;;;;;6.15;1.50;;;15.00;44.90;;;;;;2339894;54;21322;-75
2022/05/29 07:08:40;;;;;;;3.12;1.10;;;15.40;45.10;;;;;;2340719;53;21720;-75
2022/05/29 07:11:19;;;;;;;3.33;1.20;;;15.40;45.20;;;;;;2339802;54;21023;-75
2022/05/29 07:13:45;;;;;;;5.75;1.25;;;15.50;45.30;;;;;;2340221;54;20972;-76
2022/05/29 07:16:11;;;;;;;3.40;1.12;;;15.60;45.10;;;;;;2339441;54;21015;-75
2022/05/29 07:18:37;;;;;;;4.78;1.17;;;15.70;45.10;;;;;;2346938;53;20975;-76
2022/05/29 07:21:04;;;;;;;2.87;0.98;;;15.70;44.90;;;;;;2586047;53;20976;-76
2022/05/29 07:23:30;;;;;;;4.62;1.17;;;15.80;44.90;;;;;;2346096;53;21060;-76
2022/05/29 07:25:57;;;;;;;6.87;1.12;;;15.90;44.90;;;;;;2340604;54;20916;-76
2022/05/29 07:28:26;;;;;;;3.65;1.00;;;15.90;44.80;;;;;;2340091;54;21421;-76
2022/05/29 07:30:52;;;;;;;4.55;1.05;;;16.00;44.70;;;;;;2339776;54;20963;-76
2022/05/29 07:33:21;;;;;;;3.92;1.08;;;16.00;44.60;;;;;;2339639;54;21003;-75
2022/05/29 07:35:50;;;;;;;4.05;1.23;;;16.10;44.80;;;;;;2517109;53;20959;-75
2022/05/29 07:38:17;;;;;;;3.30;1.08;;;16.10;44.70;;;;;;2339078;53;21051;-75
2022/05/29 07:40:43;;;;;;;3.03;1.08;;;16.20;44.70;;;;;;2585210;53;20918;-78
2022/05/29 07:43:26;;;;;;;3.15;1.10;;;16.20;44.70;;;;;;2346850;53;21030;-76
2022/05/29 07:45:54;;;;;;;3.53;1.10;;;16.20;44.70;;;;;;2356819;53;21803;-77
2022/05/29 07:48:24;;;;;;;3.78;1.00;;;16.20;44.80;;;;;;2382767;53;20982;-76
2022/05/29 07:50:51;;;;;;;2.00;0.73;;;16.20;45.10;;;;;;2411452;53;20962;-75
2022/05/29 07:53:37;;;;;;;6.00;1.20;;;16.20;45.10;;;;;;2347170;53;20955;-76
2022/05/29 07:56:04;;;;;;;3.30;1.08;;;16.30;45.80;;;;;;2344979;53;21002;-78
2022/05/29 07:58:30;;;;;;;4.37;1.30;;;16.20;45.20;;;;;;2339128;53;20956;-76
2022/05/29 08:00:57;;;;;;;4.32;1.23;;;16.20;45.20;;;;;;2338956;53;21410;-76
2022/05/29 08:03:26;;;;;;;3.33;0.70;;;16.20;45.20;;;;;;2408647;53;20940;-75
2022/05/29 08:05:52;;;;;;;5.12;1.00;;;16.20;45.20;;;;;;2342010;53;21012;-76
2022/05/29 08:08:18;;;;;;;3.80;1.00;;;16.10;45.20;;;;;;2344321;53;20917;-76
2022/05/29 08:10:44;;;;;;;3.05;0.85;;;16.10;45.50;;;;;;2339680;53;20996;-76
2022/05/29 08:13:11;;;;;;;2.80;0.90;;;16.10;45.80;;;;;;2339640;53;21451;-75
2022/05/29 08:15:37;;;;;;;2.97;0.98;;;16.10;45.90;;;;;;2340566;53;20952;-76
2022/05/29 08:18:04;;;;;;;3.95;0.80;;;16.10;46.00;;;;;;2344941;53;20923;-76
2022/05/29 08:20:31;;;;;;;3.40;0.80;;;16.10;46.20;;;;;;2341170;53;20988;-76
2022/05/29 08:22:58;;;;;;;3.17;0.73;;;16.10;46.30;;;;;;2339411;53;20959;-76
2022/05/29 08:30:54;;;;;;;4.28;1.05;;;16.30;46.60;;;;;;2340186;54;21500;-76
2022/05/29 08:33:27;;;;;;;2.95;0.90;;;16.30;46.60;;;;;;2339552;54;20932;-76
2022/05/29 08:35:57;;;;;;;2.20;0.90;;;16.40;46.80;;;;;;2376314;53;20932;-76
2022/05/29 08:38:23;;;;;;;2.85;0.98;;;16.40;46.80;;;;;;2339098;54;21074;-77
2022/05/29 08:41:03;;;;;;;3.22;0.95;;;16.50;47.00;;;;;;2358278;53;20968;-77
2022/05/29 08:43:39;;;;;;;3.65;0.90;;;16.50;47.00;;;;;;2339828;54;21476;-75
2022/05/29 08:46:18;;;;;;;3.40;0.82;;;16.60;47.00;;;;;;2340496;54;21011;-79
2022/05/29 08:48:44;;;;;;;2.00;0.70;;;16.60;47.10;;;;;;2346117;53;20911;-76
2022/05/29 08:51:37;;;;;;;1.92;0.75;;;16.70;47.10;;;;;;2340221;53;21322;-75
2022/05/29 08:54:15;;;;;;;2.45;0.70;;;16.80;47.30;;;;;;2340587;54;20932;-76
2022/05/29 09:00:05;;;;;;;3.85;0.80;;;16.90;47.30;;;;;;2340028;54;20996;-75
2022/05/29 09:06:05;;;;;;;3.37;0.70;;;17.00;46.90;;;;;;2457717;53;21002;-75
2022/05/29 09:08:37;;;;;;;0.82;0.40;;;17.20;45.90;;;;;;2545684;53;21516;-75
2022/05/29 09:11:09;;;;;;;1.20;0.45;;;17.20;45.20;;;;;;2341777;53;21530;-78
2022/05/29 09:13:39;;;;;;;1.75;0.52;;;17.20;45.00;;;;;;2323399;54;21051;-75
2022/05/29 09:16:11;;;;;;;2.65;0.70;;;17.20;44.90;;;;;;2341588;54;21024;-75
2022/05/29 09:22:05;;;;;;;3.30;0.55;;;17.10;44.50;;;;;;2563145;53;21007;-76
2022/05/29 09:25:36;;;;;;;3.95;0.60;;;17.10;44.30;;;;;;2339620;54;20996;-76
2022/05/29 09:28:05;;;;;;;2.53;0.52;;;17.20;44.30;;;;;;2461504;53;21922;-77
2022/05/29 09:30:32;;;;;;;2.30;0.70;;;17.10;44.20;;;;;;2524640;53;21850;-75
2022/05/29 09:33:00;;;;;;;1.75;0.60;;;17.10;44.10;;;;;;2584531;53;20969;-76
2022/05/29 09:38:48;;;;;;;1.08;0.50;;;17.10;44.10;;;;;;2364050;53;21097;-76
2022/05/29 09:41:56;;;;;;;1.77;0.60;;;17.10;44.00;;;;;;2345766;53;21377;-75
2022/05/29 09:44:23;;;;;;;1.62;0.40;;;17.10;43.80;;;;;;2339081;54;20972;-75
2022/05/29 09:46:52;;;;;;;1.42;0.60;;;17.10;43.90;;;;;;2353443;53;21020;-75
2022/05/29 09:49:42;;;;;;;1.85;0.45;;;17.10;43.90;;;;;;2346693;53;20986;-76
2022/05/29 09:52:26;;;;;;;0.80;0.40;;;17.10;44.30;;;;;;2343965;53;20936;-78
2022/05/29 09:55:36;;;;;;;1.12;0.40;;;17.20;44.60;;;;;;2341217;53;20940;-75
2022/05/29 09:58:06;;;;;;;1.10;0.40;;;17.30;44.40;;;;;;2339901;54;20908;-75
2022/05/29 10:00:37;;;;;;;2.15;0.50;;;17.30;44.40;;;;;;2339348;54;20975;-76
2022/05/29 10:03:11;;;;;;;1.62;0.57;;;17.40;44.20;;;;;;2584817;53;20916;-76
2022/05/29 10:05:41;;;;;;;1.30;0.45;;;17.40;44.10;;;;;;2480365;53;21899;-76
2022/05/29 10:14:56;;;;;;;1.65;0.50;;;17.50;44.00;;;;;;2340900;53;21022;-76
2022/05/29 10:17:34;;;;;;;0.85;0.30;;;17.80;43.90;;;;;;2339450;53;21334;-78
2022/05/29 10:20:07;;;;;;;2.00;0.50;;;17.90;43.70;;;;;;2342587;53;21000;-76
2022/05/29 10:22:36;;;;;;;1.15;0.40;;;17.90;43.70;;;;;;2584510;53;20984;-76
2022/05/29 10:25:15;;;;;;;2.62;0.52;;;18.00;43.50;;;;;;2339786;53;21972;-76
2022/05/29 10:27:44;;;;;;;1.33;0.50;;;18.10;43.10;;;;;;2586128;53;20968;-75
2022/05/29 10:30:12;;;;;;;1.75;0.50;;;18.10;43.10;;;;;;2585987;53;20996;-76
2022/05/29 10:32:41;;;;;;;1.23;0.55;;;18.20;42.90;;;;;;2328096;54;21750;-73
2022/05/29 10:35:26;;;;;;;1.12;0.50;;;18.20;42.80;;;;;;2322530;54;21071;-74
2022/05/29 10:37:53;;;;;;;1.50;0.70;;;18.30;42.80;;;;;;2343560;53;20919;-74
2022/05/29 10:40:33;;;;;;;1.27;0.50;;;18.40;43.10;;;;;;2339559;53;21035;-74
2022/05/29 10:43:01;;;;;;;2.55;0.52;;;18.40;43.00;;;;;;2344194;53;20947;-75
2022/05/29 10:45:32;;;;;;;2.03;0.50;;;18.50;43.00;;;;;;2340171;53;21368;-75
2022/05/29 10:51:12;;;;;;;1.35;0.50;;;18.60;43.10;;;;;;2339291;54;21393;-75
2022/05/29 10:58:43;;;;;;;0.88;0.40;;;18.80;42.60;;;;;;2338593;54;21142;-75
2022/05/29 11:04:23;;;;;;;3.03;0.60;;;19.00;42.30;;;;;;2433083;53;1308309;-75
2022/05/29 11:07:17;;;;;;;2.17;0.50;;;19.10;42.10;;;;;;2516919;53;20999;-75
2022/05/29 11:11:25;;;;;;;1.62;0.60;;;19.20;42.60;;;;;;2339488;53;21016;-76
2022/05/29 11:14:16;;;;;;;1.42;0.40;;;19.20;41.70;;;;;;2341497;53;20899;-75
2022/05/29 11:23:44;;;;;;;2.33;0.60;;;19.30;42.00;;;;;;2389805;53;21424;-75
2022/05/29 11:30:18;;;;;;;1.90;0.50;;;19.40;41.60;;;;;;2338529;53;21121;-75
2022/05/29 11:36:02;;;;;;;2.45;0.65;;;19.60;41.60;;;;;;2340045;54;20936;-74
2022/05/29 11:38:49;;;;;;;2.67;0.77;;;19.60;41.60;;;;;;2585178;53;21070;-74
2022/05/29 11:42:52;;;;;;;2.42;0.68;;;19.70;41.40;;;;;;2339855;54;21027;-73
2022/05/29 11:53:24;;;;;;;2.80;0.90;;;20.00;40.90;;;;;;2344928;53;20971;-76
2022/05/29 11:55:55;;;;;;;1.80;0.62;;;20.10;40.60;;;;;;2341049;53;20973;-75
2022/05/29 11:59:52;;;;;;;2.75;0.77;;;20.10;40.70;;;;;;2340050;54;20901;-74
2022/05/29 12:03:57;;;;;;;4.75;1.15;;;20.20;40.60;;;;;;2345646;53;21376;-74
2022/05/29 12:06:41;;;;;;;5.40;1.37;;;20.20;40.30;;;;;;2339400;53;20928;-76
2022/05/29 12:09:24;;;;;;;3.37;1.27;;;20.20;39.50;;;;;;2339959;53;21076;-74
2022/05/29 12:12:32;;;;;;;4.50;1.33;;;20.20;39.80;;;;;;2461106;53;20942;-80
2022/05/29 12:15:00;;;;;;;5.32;1.50;;;20.20;39.50;;;;;;2586274;53;20964;-75
2022/05/29 12:17:45;;;;;;;5.55;1.55;;;20.20;40.20;;;;;;2534853;53;20912;-76
2022/05/29 12:21:26;;;;;;;7.05;1.80;;;20.30;40.10;;;;;;2340679;54;20916;-76
2022/05/29 12:23:52;;;;;;;3.03;1.00;;;20.30;39.70;;;;;;2340400;54;21386;-74
2022/05/29 12:26:40;;;;;;;2.45;0.88;;;20.40;40.10;;;;;;2345458;53;20915;-75
2022/05/29 12:30:11;;;;;;;2.40;0.70;;;20.50;40.10;;;;;;2340964;53;21032;-76
2022/05/29 12:32:37;;;;;;;2.80;0.80;;;20.50;40.00;;;;;;2346386;53;20983;-74
2022/05/29 12:35:14;;;;;;;2.20;0.82;;;20.60;39.80;;;;;;2340516;53;21016;-73
2022/05/29 12:40:40;;;;;;;2.60;0.98;;;20.70;39.40;;;;;;2384082;53;20991;-75
2022/05/29 12:44:39;;;;;;;2.37;0.70;;;20.80;39.30;;;;;;2340677;54;21000;-74
2022/05/29 12:50:15;;;;;;;3.80;0.73;;;20.80;39.00;;;;;;2340086;54;21500;-74
2022/05/29 12:56:10;;;;;;;3.83;0.95;;;21.00;39.30;;;;;;2340631;54;20928;-75
2022/05/29 12:59:03;;;;;;;2.08;0.68;;;21.00;39.00;;;;;;2342036;54;20976;-74
2022/05/29 13:05:58;;;;;;;2.40;0.77;;;21.00;38.20;;;;;;2349550;53;20988;-74
2022/05/29 13:08:46;;;;;;;2.20;0.60;;;21.00;38.40;;;;;;2340098;54;20992;-74
2022/05/29 13:11:18;;;;;;;2.67;0.70;;;20.90;38.10;;;;;;2340415;54;21079;-77
2022/05/29 13:13:46;;;;;;;;;;;21.00;38.30;;;;;;2426346;53;21002;-75
2022/05/29 13:16:29;;;;;;;3.15;0.85;;;21.00;38.60;;;;;;2339738;54;20625;-76
2022/05/29 13:19:15;;;;;;;1.87;0.60;;;21.00;38.40;;;;;;2340754;54;20932;-76
2022/05/29 13:22:04;;;;;;;2.55;0.88;;;21.00;38.30;;;;;;2345399;53;20927;-74
2022/05/29 13:24:35;;;;;;;3.53;0.65;;;21.00;38.00;;;;;;2442857;53;20933;-75
2022/05/29 13:27:27;;;;;;;1.92;0.52;;;21.00;38.30;;;;;;2340413;54;20984;-74
2022/05/29 13:29:58;;;;;;;2.70;0.70;;;21.00;38.30;;;;;;2345453;53;21023;-73
2022/05/29 13:32:29;;;;;;;3.37;0.70;;;21.10;37.90;;;;;;2340877;53;21027;-77
2022/05/29 13:35:56;;;;;;;1.52;0.50;;;21.10;37.90;;;;;;2340422;54;20991;-76
2022/05/29 13:38:59;;;;;;;2.97;0.75;;;21.20;37.50;;;;;;2361048;53;20943;-73
2022/05/29 13:41:30;;;;;;;1.83;0.60;;;21.20;37.40;;;;;;2346808;53;20879;-74
2022/05/29 13:44:15;;;;;;;3.55;0.77;;;21.30;37.50;;;;;;2363524;53;21039;-74
2022/05/29 13:46:41;;;;;;;2.42;0.70;;;21.30;38.00;;;;;;2341742;53;20952;-75
2022/05/29 13:49:43;;;;;;;3.20;1.10;;;21.30;37.10;;;;;;2348240;53;20972;-74
2022/05/29 13:52:15;;;;;;;3.75;0.88;;;21.40;36.50;;;;;;2328594;54;20970;-75
2022/05/29 13:54:45;;;;;;;2.60;0.65;;;21.40;36.80;;;;;;2345503;53;20907;-75
2022/05/29 14:03:58;;;;;;;3.17;0.75;;;21.40;36.00;;;;;;2350302;53;21057;-74
2022/05/29 14:06:40;;;;;;;1.42;0.40;;;21.40;36.10;;;;;;2347392;53;20943;-78
2022/05/29 14:11:05;;;;;;;3.50;0.80;;;21.40;36.60;;;;;;2427455;53;20940;-76
2022/05/29 14:13:51;;;;;;;2.45;0.60;;;21.40;36.60;;;;;;2343106;53;23006;-76
2022/05/29 14:16:41;;;;;;;2.60;0.60;;;21.40;36.00;;;;;;2335091;53;21016;-72
2022/05/29 14:21:13;;;;;;;2.22;0.62;;;21.40;35.80;;;;;;2342387;54;20953;-72
2022/05/29 14:23:55;;;;;;;2.75;0.57;;;21.40;35.80;;;;;;2378479;53;20979;-74
2022/05/29 14:31:02;;;;;;;1.60;0.70;;;21.30;35.30;;;;;;2487263;53;21011;-74
2022/05/29 14:37:48;;;;;;;2.05;0.60;;;21.30;36.00;;;;;;2589495;53;20943;-74
2022/05/29 14:42:54;;;;;;;2.95;0.77;;;21.20;35.80;;;;;;2345924;53;21014;-74
2022/05/29 14:45:22;;;;;;;1.30;0.40;;;21.20;35.90;;;;;;2339952;54;20948;-75
2022/05/29 14:48:10;;;;;;;2.22;0.60;;;21.20;35.60;;;;;;2342630;53;20987;-74
2022/05/29 14:50:52;;;;;;;1.23;0.50;;;21.20;35.20;;;;;;2347349;53;21440;-75
2022/05/29 14:53:54;;;;;;;2.33;0.88;;;21.20;35.00;;;;;;2342617;53;21522;-73
2022/05/29 14:56:38;;;;;;;2.28;0.70;;;21.20;34.30;;;;;;2342875;54;20972;-77
2022/05/29 14:59:27;;;;;;;1.33;0.43;;;21.20;34.00;;;;;;2343902;53;21004;-75
2022/05/29 15:01:55;;;;;;;3.25;0.70;;;21.10;34.20;;;;;;2352292;53;20954;-76
2022/05/29 15:04:27;;;;;;;5.50;0.62;;;21.10;34.00;;;;;;2329135;53;20908;-75
2022/05/29 15:12:42;;;;;;;1.62;0.60;;;21.00;33.80;;;;;;2343614;53;21433;-77
2022/05/29 15:15:23;;;;;;;1.85;0.50;;;21.00;34.20;;;;;;2341479;53;20956;-74
2022/05/29 15:17:50;;;;;;;3.25;0.60;;;21.00;34.20;;;;;;2400162;53;21691;-76
2022/05/29 15:25:57;;;;;;;1.33;0.40;;;21.10;34.10;;;;;;2344766;53;20959;-76
2022/05/29 15:28:23;;;;;;;2.22;0.43;;;21.10;33.80;;;;;;2345897;53;21774;-76
2022/05/29 15:30:50;;;;;;;1.52;0.55;;;21.20;34.00;;;;;;2339002;53;21071;-76
2022/05/29 15:33:16;;;;;;;2.20;0.80;;;21.10;33.90;;;;;;2370033;53;21401;-76
2022/05/29 15:35:56;;;;;;;1.65;0.50;;;21.20;34.00;;;;;;2344298;53;20994;-78
2022/05/29 15:38:37;;;;;;;1.25;0.40;;;21.20;33.70;;;;;;2343960;53;21028;-74
2022/05/29 15:43:55;;;;;;;1.23;0.40;;;21.20;33.10;;;;;;2342985;54;21809;-77
2022/05/29 15:47:59;;;;;;;1.65;0.60;;;21.20;33.40;;;;;;2340341;54;21000;-77
2022/05/29 15:55:42;;;;;;;1.33;0.40;;;21.30;33.40;;;;;;2340410;54;20956;-76
2022/05/29 15:58:38;;;;;;;0.62;0.22;;;21.30;33.10;;;;;;2430276;53;20918;-74
2022/05/29 16:01:13;;;;;;;2.05;0.40;;;21.30;32.90;;;;;;2323339;54;20984;-75
2022/05/29 16:03:41;;;;;;;1.23;0.40;;;21.30;33.20;;;;;;2339926;53;20940;-75
2022/05/29 16:06:22;;;;;;;1.73;0.70;;;21.30;33.30;;;;;;2340121;54;20924;-73